createdAt,value
2019-03-19T00:00:30.527Z,9.80
2019-03-19T00:03:01.351Z,10.93
2019-03-19T00:05:37.224Z,9.87
2019-03-19T00:08:08.051Z,8.83
2019-03-19T00:10:43.234Z,13.03
2019-03-19T00:13:14.432Z,11.30
2019-03-19T00:15:46.746Z,10.03
2019-03-19T00:18:17.569Z,9.70
2019-03-19T00:20:48.380Z,10.77
2019-03-19T00:23:20.841Z,9.63
2019-03-19T00:25:53.216Z,12.27
2019-03-19T00:28:27.310Z,9.13
2019-03-19T00:30:58.066Z,13.07
2019-03-19T00:33:28.957Z,10.83
2019-03-19T00:36:00.050Z,15.87
2019-03-19T00:38:30.900Z,9.97
2019-03-19T00:41:01.699Z,11.97
2019-03-19T00:43:32.571Z,13.33
2019-03-19T00:46:06.408Z,10.80
2019-03-19T00:48:37.633Z,12.27
2019-03-19T00:51:08.433Z,10.90
2019-03-19T00:53:40.016Z,12.80
2019-03-19T00:56:10.860Z,11.53
2019-03-19T00:58:47.429Z,14.33
2019-03-19T01:01:18.226Z,12.83
2019-03-19T01:03:49.585Z,15.90
2019-03-19T01:06:20.333Z,10.43
2019-03-19T01:08:51.188Z,16.57
2019-03-19T01:11:26.924Z,10.23
2019-03-19T01:14:01.567Z,9.30
2019-03-19T01:16:33.525Z,10.53
2019-03-19T01:19:04.759Z,12.37
2019-03-19T01:21:35.594Z,10.10
2019-03-19T01:24:10.968Z,13.07
2019-03-19T01:26:41.746Z,10.10
2019-03-19T01:29:12.690Z,9.53
2019-03-19T01:31:44.995Z,16.93
2019-03-19T01:34:24.137Z,11.33
2019-03-19T01:36:54.550Z,9.60
2019-03-19T01:39:26.064Z,8.40
2019-03-19T01:41:58.135Z,13.23
2019-03-19T01:44:30.827Z,10.57
2019-03-19T01:47:07.254Z,12.23
2019-03-19T01:49:39.231Z,12.60
2019-03-19T01:52:10.188Z,11.83
2019-03-19T01:54:41.955Z,9.07
2019-03-19T01:57:12.791Z,11.80
2019-03-19T01:59:46.550Z,11.93
2019-03-19T02:02:17.673Z,11.17
2019-03-19T02:04:49.036Z,8.90
2019-03-19T02:07:19.872Z,9.10
2019-03-19T02:09:50.737Z,11.80
2019-03-19T02:12:21.619Z,9.77
2019-03-19T02:14:52.884Z,11.93
2019-03-19T02:17:23.713Z,13.13
2019-03-19T02:20:00.438Z,11.07
2019-03-19T02:22:31.506Z,8.37
2019-03-19T02:25:02.370Z,11.67
2019-03-19T02:27:45.496Z,8.97
2019-03-19T02:30:17.377Z,10.83
2019-03-19T02:32:48.183Z,7.77
2019-03-19T02:35:19.041Z,11.33
2019-03-19T02:37:49.886Z,7.03
2019-03-19T02:40:20.666Z,10.93
2019-03-19T02:42:52.033Z,9.47
2019-03-19T02:45:22.920Z,6.40
2019-03-19T02:47:53.805Z,9.90
2019-03-19T02:50:26.119Z,9.87
2019-03-19T02:52:57.986Z,12.13
2019-03-19T02:55:28.842Z,8.30
2019-03-19T02:58:00.052Z,11.03
2019-03-19T03:00:30.858Z,15.47
2019-03-19T03:03:01.758Z,11.17
2019-03-19T03:05:32.858Z,9.27
2019-03-19T03:08:04.645Z,9.63
2019-03-19T03:10:35.446Z,9.27
2019-03-19T03:13:12.051Z,11.77
2019-03-19T03:15:44.350Z,11.33
2019-03-19T03:18:15.187Z,10.97
2019-03-19T03:20:46.254Z,8.80
2019-03-19T03:23:17.143Z,14.97
2019-03-19T03:25:47.929Z,9.07
2019-03-19T03:28:19.171Z,7.17
2019-03-19T03:30:49.998Z,12.27
2019-03-19T03:33:24.281Z,14.83
2019-03-19T03:35:55.686Z,9.20
2019-03-19T03:38:26.580Z,10.03
2019-03-19T03:41:03.827Z,10.03
2019-03-19T03:43:35.914Z,9.23
2019-03-19T03:46:07.030Z,5.37
2019-03-19T03:48:38.257Z,9.67
2019-03-19T03:51:10.136Z,7.00
2019-03-19T03:53:40.952Z,16.30
2019-03-19T03:56:12.019Z,13.23
2019-03-19T03:58:43.253Z,8.70
2019-03-19T04:01:14.343Z,9.23
2019-03-19T04:03:45.125Z,8.20
2019-03-19T04:06:15.965Z,6.30
2019-03-19T04:08:46.730Z,8.57
2019-03-19T04:11:17.567Z,9.20
2019-03-19T04:13:48.417Z,7.53
2019-03-19T04:16:19.506Z,12.20
2019-03-19T04:18:50.359Z,6.80
2019-03-19T04:21:21.228Z,12.77
2019-03-19T04:23:54.987Z,11.43
2019-03-19T04:26:25.852Z,7.60
2019-03-19T04:28:56.690Z,17.00
2019-03-19T04:31:27.875Z,9.37
2019-03-19T04:33:58.745Z,8.37
2019-03-19T04:36:30.722Z,14.23
2019-03-19T04:39:01.755Z,11.37
2019-03-19T04:41:33.639Z,5.67
2019-03-19T04:44:05.056Z,11.63
2019-03-19T04:46:37.135Z,7.30
2019-03-19T04:49:08.456Z,10.90
2019-03-19T04:51:39.352Z,10.30
2019-03-19T04:54:10.195Z,12.00
2019-03-19T04:56:41.072Z,14.50
2019-03-19T04:59:11.941Z,7.40
2019-03-19T05:01:42.746Z,9.23
2019-03-19T05:04:13.617Z,12.37
2019-03-19T05:06:44.467Z,14.43
2019-03-19T05:09:15.526Z,11.63
2019-03-19T05:11:46.735Z,10.27
2019-03-19T05:14:17.533Z,12.87
2019-03-19T05:16:48.349Z,13.57
2019-03-19T05:19:20.013Z,13.27
2019-03-19T05:21:50.847Z,9.00
2019-03-19T05:24:21.616Z,12.73
2019-03-19T05:26:55.584Z,12.03
2019-03-19T05:29:26.719Z,10.77
2019-03-19T05:31:57.529Z,12.30
2019-03-19T05:34:28.377Z,11.33
2019-03-19T05:37:05.412Z,12.67
2019-03-19T05:39:37.025Z,12.10
2019-03-19T05:42:08.242Z,10.23
2019-03-19T05:44:39.264Z,11.37
2019-03-19T05:47:10.101Z,11.57
2019-03-19T05:49:41.006Z,11.60
2019-03-19T05:52:12.378Z,15.07
2019-03-19T05:54:43.296Z,21.20
2019-03-19T05:57:14.125Z,11.03
2019-03-19T05:59:46.838Z,18.43
2019-03-19T06:02:17.726Z,11.33
2019-03-19T06:04:48.668Z,8.37
2019-03-19T06:07:21.065Z,7.87
2019-03-19T06:09:53.453Z,8.90
2019-03-19T06:12:24.555Z,10.80
2019-03-19T06:14:55.373Z,12.47
2019-03-19T06:17:26.690Z,8.57
2019-03-19T06:19:57.500Z,15.47
2019-03-19T06:22:28.289Z,11.57
2019-03-19T06:24:59.101Z,15.57
2019-03-19T06:27:30.961Z,15.10
2019-03-19T06:30:01.775Z,13.17
2019-03-19T06:32:32.651Z,9.63
2019-03-19T06:35:03.876Z,19.23
2019-03-19T06:37:35.012Z,13.90
2019-03-19T06:40:06.849Z,12.67
2019-03-19T06:42:37.630Z,18.83
2019-03-19T06:45:09.828Z,9.43
2019-03-19T06:47:43.456Z,11.90
2019-03-19T06:50:14.921Z,13.03
2019-03-19T06:52:47.280Z,13.83
2019-03-19T06:55:18.299Z,18.23
2019-03-19T06:57:49.041Z,12.17
2019-03-19T07:00:24.293Z,9.47
2019-03-19T07:03:00.722Z,9.67
2019-03-19T07:05:31.136Z,10.73
2019-03-19T07:08:02.139Z,11.10
2019-03-19T07:10:33.244Z,13.20
2019-03-19T07:13:04.934Z,8.77
2019-03-19T07:15:35.772Z,12.27
2019-03-19T07:18:06.813Z,7.10
2019-03-19T07:20:37.654Z,16.23
2019-03-19T07:23:08.476Z,12.07
2019-03-19T07:25:39.573Z,9.03
2019-03-19T07:28:21.389Z,15.27
2019-03-19T07:30:43.005Z,16.37
2019-03-19T07:33:17.751Z,8.17
2019-03-19T07:35:49.119Z,18.07
2019-03-19T07:38:20.016Z,15.37
2019-03-19T07:40:50.951Z,9.07
2019-03-19T07:43:24.930Z,13.57
2019-03-19T07:45:56.655Z,17.83
2019-03-19T07:48:30.215Z,20.07
2019-03-19T07:51:03.902Z,16.67
2019-03-19T07:53:35.066Z,13.33
2019-03-19T07:56:17.763Z,14.00
2019-03-19T07:58:51.709Z,16.33
2019-03-19T08:01:30.423Z,10.73
2019-03-19T08:04:10.697Z,16.87
2019-03-19T08:06:41.492Z,10.23
2019-03-19T08:09:14.286Z,13.27
2019-03-19T08:11:45.142Z,8.33
2019-03-19T08:14:20.830Z,17.80
2019-03-19T08:16:53.292Z,15.67
2019-03-19T08:19:24.450Z,15.50
2019-03-19T08:21:58.306Z,12.77
2019-03-19T08:24:29.722Z,17.50
2019-03-19T08:27:00.831Z,16.90
2019-03-19T08:29:41.226Z,12.20
2019-03-19T08:32:17.306Z,9.93
2019-03-19T08:34:48.172Z,13.70
2019-03-19T08:37:20.949Z,10.80
2019-03-19T08:39:54.135Z,11.10
2019-03-19T08:42:29.645Z,14.97
2019-03-19T08:45:00.855Z,15.33
2019-03-19T08:47:31.676Z,11.87
2019-03-19T08:50:02.832Z,5.57
2019-03-19T08:52:33.933Z,15.93
2019-03-19T08:55:05.103Z,13.77
2019-03-19T08:57:38.880Z,7.40
2019-03-19T09:00:13.851Z,11.80
2019-03-19T09:03:01.635Z,8.70
2019-03-19T09:05:35.539Z,10.20
2019-03-19T09:08:10.124Z,9.37
2019-03-19T09:10:44.949Z,10.47
2019-03-19T09:13:16.198Z,8.77
2019-03-19T09:15:47.534Z,9.63
2019-03-19T09:18:25.150Z,11.40
2019-03-19T09:20:55.951Z,16.37
2019-03-19T09:23:27.251Z,7.80
2019-03-19T09:26:06.277Z,6.63
2019-03-19T09:28:40.406Z,11.97
2019-03-19T09:31:12.140Z,10.27
2019-03-19T09:33:46.744Z,17.00
2019-03-19T09:36:17.734Z,15.43
2019-03-19T09:38:49.716Z,13.33
2019-03-19T09:41:26.644Z,12.17
2019-03-19T09:44:05.141Z,9.10
2019-03-19T09:46:38.428Z,13.10
2019-03-19T09:49:09.254Z,12.90
2019-03-19T09:51:40.002Z,14.00
2019-03-19T09:54:11.149Z,15.50
2019-03-19T09:56:41.934Z,13.13
2019-03-19T09:59:13.374Z,14.13
2019-03-19T10:01:44.217Z,16.83
2019-03-19T10:05:06.348Z,23.40
2019-03-19T10:08:15.189Z,48.40
2019-03-19T10:10:55.572Z,97.17
2019-03-19T10:13:26.432Z,137.60
2019-03-19T10:15:57.644Z,65.50
2019-03-19T10:18:31.561Z,64.20
2019-03-19T10:21:11.257Z,76.70
2019-03-19T10:23:42.524Z,11.27
2019-03-19T10:26:17.095Z,6.20
2019-03-19T10:28:48.387Z,78.83
2019-03-19T10:31:19.365Z,13.63
2019-03-19T10:34:11.799Z,9.57
2019-03-19T10:36:59.109Z,14.40
2019-03-19T10:39:30.719Z,12.20
2019-03-19T10:42:01.631Z,8.90
2019-03-19T10:44:36.287Z,9.07
2019-03-19T10:47:16.200Z,10.60
2019-03-19T10:49:47.074Z,9.70
2019-03-19T10:52:19.690Z,7.40
2019-03-19T10:54:53.890Z,10.87
2019-03-19T10:57:28.086Z,19.40
2019-03-19T11:00:10.633Z,8.10
2019-03-19T11:02:41.523Z,11.37
2019-03-19T11:05:12.801Z,8.37
2019-03-19T11:07:47.148Z,5.83
2019-03-19T11:10:18.053Z,11.63
2019-03-19T11:12:50.442Z,6.07
2019-03-19T11:15:23.130Z,7.37
2019-03-19T11:17:59.278Z,7.27
2019-03-19T11:20:41.296Z,6.50
2019-03-19T11:23:16.164Z,8.30
2019-03-19T11:25:57.336Z,8.33
2019-03-19T11:28:34.265Z,7.50
2019-03-19T11:31:09.877Z,6.83
2019-03-19T11:33:41.340Z,6.40
2019-03-19T11:36:15.108Z,8.47
2019-03-19T11:38:50.349Z,5.50
2019-03-19T11:41:22.419Z,5.10
2019-03-19T11:43:55.735Z,5.20
2019-03-19T11:46:30.711Z,5.97
2019-03-19T11:49:01.516Z,7.40
2019-03-19T11:51:32.609Z,10.67
2019-03-19T11:54:09.383Z,7.83
2019-03-19T11:56:40.209Z,3.77
2019-03-19T11:59:12.654Z,6.90
2019-03-19T12:01:46.591Z,5.77
2019-03-19T12:04:17.420Z,6.73
2019-03-19T12:06:48.335Z,8.33
2019-03-19T12:09:22.557Z,6.80
2019-03-19T12:11:54.475Z,6.77
2019-03-19T12:14:25.245Z,5.90
2019-03-19T12:16:57.552Z,7.63
2019-03-19T12:19:30.649Z,5.50
2019-03-19T12:22:01.533Z,10.73
2019-03-19T12:24:35.895Z,9.13
2019-03-19T12:27:13.209Z,6.27
2019-03-19T12:29:46.701Z,9.60
2019-03-19T12:32:20.618Z,4.07
2019-03-19T12:34:51.914Z,8.87
2019-03-19T12:37:26.547Z,4.83
2019-03-19T12:40:03.877Z,8.93
2019-03-19T12:42:36.438Z,7.57
2019-03-19T12:45:08.772Z,4.57
2019-03-19T12:47:47.885Z,9.60
2019-03-19T12:50:27.315Z,8.20
2019-03-19T12:53:01.604Z,6.83
2019-03-19T12:55:32.408Z,5.13
2019-03-19T12:58:06.459Z,10.93
2019-03-19T13:00:38.421Z,5.77
2019-03-19T13:03:09.822Z,6.43
2019-03-19T13:05:41.425Z,6.00
2019-03-19T13:08:13.357Z,7.33
2019-03-19T13:10:44.158Z,4.40
2019-03-19T13:13:17.440Z,3.33
2019-03-19T13:15:48.998Z,11.67
2019-03-19T13:18:21.430Z,6.87
2019-03-19T13:20:53.669Z,3.70
2019-03-19T13:23:26.247Z,4.03
2019-03-19T13:25:57.142Z,10.57
2019-03-19T13:28:29.312Z,6.63
2019-03-19T13:31:03.229Z,9.03
2019-03-19T13:33:35.260Z,5.50
2019-03-19T13:36:09.653Z,6.90
2019-03-19T13:38:40.513Z,11.20
2019-03-19T13:41:17.661Z,3.73
2019-03-19T13:43:50.761Z,5.50
2019-03-19T13:46:21.613Z,8.47
2019-03-19T13:48:55.388Z,4.93
2019-03-19T13:51:31.968Z,13.90
2019-03-19T13:54:03.152Z,9.80
2019-03-19T13:56:34.412Z,5.83
2019-03-19T13:59:05.419Z,4.30
2019-03-19T14:01:37.795Z,6.33
2019-03-19T14:04:08.601Z,9.17
2019-03-19T14:06:42.180Z,4.20
2019-03-19T14:09:23.662Z,4.37
2019-03-19T14:11:54.662Z,7.07
2019-03-19T14:14:25.943Z,5.40
2019-03-19T14:16:59.361Z,7.77
2019-03-19T14:19:30.526Z,8.93
2019-03-19T14:22:01.376Z,9.33
2019-03-19T14:24:32.683Z,10.47
2019-03-19T14:27:03.493Z,6.27
2019-03-19T14:29:53.364Z,9.90
2019-03-19T14:32:28.621Z,5.70
2019-03-19T14:35:02.058Z,3.90
2019-03-19T14:37:33.239Z,5.07
2019-03-19T14:40:04.127Z,7.80
2019-03-19T14:42:41.967Z,7.37
2019-03-19T14:45:16.426Z,6.83
2019-03-19T14:47:47.268Z,7.37
2019-03-19T14:50:26.379Z,4.13
2019-03-19T14:52:58.011Z,4.10
2019-03-19T14:55:29.280Z,6.97
2019-03-19T14:58:00.617Z,8.43
2019-03-19T15:00:35.309Z,7.43
2019-03-19T15:03:08.172Z,5.00
2019-03-19T15:05:39.168Z,5.50
2019-03-19T15:08:11.958Z,6.37
2019-03-19T15:11:02.194Z,2.40
2019-03-19T15:13:55.325Z,2.27
2019-03-19T15:16:49.122Z,4.37
2019-03-19T15:19:22.359Z,3.57
2019-03-19T15:21:59.320Z,3.97
2019-03-19T15:24:33.937Z,5.33
2019-03-19T15:27:08.450Z,3.27
2019-03-19T15:29:39.808Z,3.67
2019-03-19T15:32:13.843Z,5.17
2019-03-19T15:34:46.541Z,5.37
2019-03-19T15:37:26.946Z,4.60
2019-03-19T15:40:01.911Z,5.57
2019-03-19T15:42:33.385Z,5.83
2019-03-19T15:45:07.512Z,3.87
2019-03-19T15:47:39.687Z,8.63
2019-03-19T15:50:12.890Z,3.53
2019-03-19T15:52:46.606Z,7.53
2019-03-19T15:55:17.504Z,2.13
2019-03-19T15:57:55.762Z,4.97
2019-03-19T16:00:27.199Z,4.40
2019-03-19T16:02:59.840Z,3.67
2019-03-19T16:05:31.104Z,8.70
2019-03-19T16:08:07.926Z,3.60
2019-03-19T16:10:51.089Z,3.73
2019-03-19T16:13:23.897Z,5.00
2019-03-19T16:15:58.012Z,4.07
2019-03-19T16:18:30.162Z,3.77
2019-03-19T16:21:01.379Z,4.70
2019-03-19T16:23:40.976Z,5.43
2019-03-19T16:26:11.767Z,3.87
2019-03-19T16:28:46.097Z,7.43
2019-03-19T16:31:17.212Z,9.90
2019-03-19T16:33:52.043Z,5.60
2019-03-19T16:36:23.277Z,5.80
2019-03-19T16:38:55.962Z,3.70
2019-03-19T16:41:32.335Z,5.67
2019-03-19T16:44:09.262Z,7.07
2019-03-19T16:46:41.614Z,5.03
2019-03-19T16:49:14.966Z,4.80
2019-03-19T16:51:49.559Z,7.83
2019-03-19T16:54:20.495Z,5.33
2019-03-19T16:56:54.517Z,6.77
2019-03-19T16:59:26.808Z,9.53
2019-03-19T17:02:01.683Z,3.13
2019-03-19T17:04:35.751Z,8.17
2019-03-19T17:07:12.554Z,6.23
2019-03-19T17:09:50.861Z,7.27
2019-03-19T17:12:30.645Z,5.00
2019-03-19T17:15:01.759Z,3.90
2019-03-19T17:17:32.891Z,6.33
2019-03-19T17:20:04.211Z,4.77
2019-03-19T17:22:35.524Z,5.50
2019-03-19T17:25:10.263Z,4.10
2019-03-19T17:27:47.383Z,4.07
2019-03-19T17:30:25.137Z,4.27
2019-03-19T17:33:01.444Z,6.53
2019-03-19T17:35:32.222Z,3.80
2019-03-19T17:38:08.803Z,7.67
2019-03-19T17:40:41.907Z,4.57
2019-03-19T17:43:14.230Z,4.40
2019-03-19T17:45:45.984Z,4.63
2019-03-19T17:48:21.385Z,5.20
2019-03-19T17:50:58.626Z,4.93
2019-03-19T17:53:29.651Z,9.73
2019-03-19T17:56:09.917Z,6.03
2019-03-19T17:58:41.667Z,5.37
2019-03-19T18:01:17.422Z,7.30
2019-03-19T18:03:48.111Z,7.37
2019-03-19T18:06:20.119Z,8.70
2019-03-19T18:08:52.265Z,8.47
2019-03-19T18:11:25.376Z,4.53
2019-03-19T18:13:58.443Z,6.50
2019-03-19T18:16:30.050Z,7.73
2019-03-19T18:19:02.388Z,9.23
2019-03-19T18:21:33.507Z,5.80
2019-03-19T18:24:10.102Z,4.90
2019-03-19T18:26:48.503Z,5.73
2019-03-19T18:29:20.697Z,6.73
2019-03-19T18:31:57.326Z,8.83
2019-03-19T18:34:28.495Z,7.80
2019-03-19T18:36:59.585Z,8.57
2019-03-19T18:39:31.038Z,6.27
2019-03-19T18:42:02.110Z,5.60
2019-03-19T18:44:33.039Z,4.47
2019-03-19T18:47:04.295Z,6.97
2019-03-19T18:49:35.093Z,6.13
2019-03-19T18:52:06.361Z,4.47
2019-03-19T18:54:43.588Z,4.90
2019-03-19T18:57:16.597Z,12.77
2019-03-19T18:59:52.292Z,4.70
2019-03-19T19:02:25.112Z,4.87
2019-03-19T19:04:59.778Z,6.90
2019-03-19T19:07:42.192Z,3.63
2019-03-19T19:10:16.530Z,9.33
2019-03-19T19:12:52.194Z,4.53
2019-03-19T19:15:25.081Z,6.53
2019-03-19T19:17:56.379Z,7.17
2019-03-19T19:20:32.606Z,5.13
2019-03-19T19:23:03.562Z,7.83
2019-03-19T19:25:35.015Z,7.37
2019-03-19T19:28:05.866Z,3.60
2019-03-19T19:30:43.520Z,4.33
2019-03-19T19:33:18.137Z,5.93
2019-03-19T19:35:54.330Z,4.13
2019-03-19T19:38:35.472Z,5.23
2019-03-19T19:41:13.076Z,8.40
2019-03-19T19:43:53.162Z,5.60
2019-03-19T19:46:24.413Z,3.27
2019-03-19T19:48:57.693Z,8.27
2019-03-19T19:51:28.556Z,5.53
2019-03-19T19:54:04.036Z,4.97
2019-03-19T19:56:46.735Z,10.80
2019-03-19T19:59:26.391Z,5.70
2019-03-19T20:02:29.640Z,4.33
2019-03-19T20:05:05.827Z,6.10
2019-03-19T20:07:49.195Z,6.23
2019-03-19T20:10:29.087Z,15.50
2019-03-19T20:13:00.230Z,14.63
2019-03-19T20:15:39.454Z,11.93
2019-03-19T20:18:12.266Z,14.67
2019-03-19T20:20:51.076Z,10.33
2019-03-19T20:23:25.203Z,11.03
2019-03-19T20:26:00.043Z,10.80
2019-03-19T20:28:33.366Z,8.93
2019-03-19T20:31:11.410Z,5.57
2019-03-19T20:33:49.777Z,6.87
2019-03-19T20:36:30.647Z,4.60
2019-03-19T20:39:01.744Z,8.17
2019-03-19T20:41:36.535Z,5.57
2019-03-19T20:44:09.630Z,4.07
2019-03-19T20:46:41.121Z,5.87
2019-03-19T20:49:15.705Z,5.87
2019-03-19T20:51:54.507Z,10.20
2019-03-19T20:54:25.299Z,7.77
2019-03-19T20:57:16.053Z,8.73
2019-03-19T20:59:59.355Z,9.30
2019-03-19T21:02:33.829Z,9.27
2019-03-19T21:05:08.091Z,7.90
2019-03-19T21:07:40.976Z,3.40
2019-03-19T21:10:14.324Z,7.97
2019-03-19T21:12:45.764Z,5.23
2019-03-19T21:15:28.998Z,11.67
2019-03-19T21:18:00.194Z,6.63
2019-03-19T21:20:31.328Z,7.40
2019-03-19T21:23:02.779Z,10.00
2019-03-19T21:25:36.190Z,10.40
2019-03-19T21:28:14.451Z,13.90
2019-03-19T21:30:46.747Z,10.80
2019-03-19T21:33:17.971Z,14.90
2019-03-19T21:35:49.598Z,13.77
2019-03-19T21:38:21.530Z,12.37
2019-03-19T21:40:55.895Z,13.10
2019-03-19T21:43:27.081Z,13.23
2019-03-19T21:46:02.561Z,9.03
2019-03-19T21:48:33.846Z,12.67
2019-03-19T21:51:11.662Z,8.67
2019-03-19T21:53:46.868Z,9.30
2019-03-19T21:56:23.138Z,6.27
2019-03-19T21:59:03.001Z,8.60
2019-03-19T22:01:38.400Z,9.53
2019-03-19T22:04:10.637Z,12.87
2019-03-19T22:06:48.029Z,11.47
2019-03-19T22:09:24.177Z,5.33
2019-03-19T22:11:57.350Z,6.17
2019-03-19T22:14:30.325Z,6.47
2019-03-19T22:17:01.479Z,5.77
2019-03-19T22:19:32.827Z,4.83
2019-03-19T22:22:09.403Z,9.87
2019-03-19T22:24:42.768Z,8.60
2019-03-19T22:27:13.550Z,10.17
2019-03-19T22:29:51.274Z,10.03
2019-03-19T22:32:22.184Z,9.37
2019-03-19T22:34:53.204Z,11.20
2019-03-19T22:37:27.975Z,7.90
2019-03-19T22:39:58.760Z,11.73
2019-03-19T22:42:29.562Z,9.73
2019-03-19T22:45:02.618Z,9.90
2019-03-19T22:47:34.833Z,5.57
2019-03-19T22:50:05.795Z,5.83
2019-03-19T22:52:42.356Z,6.40
2019-03-19T22:55:15.998Z,8.17
2019-03-19T22:57:47.882Z,7.23
2019-03-19T23:00:37.495Z,8.03
2019-03-19T23:03:12.321Z,11.07
2019-03-19T23:05:43.148Z,9.50
2019-03-19T23:08:14.765Z,7.63
2019-03-19T23:10:48.806Z,9.03
2019-03-19T23:13:19.720Z,9.00
2019-03-19T23:15:50.962Z,7.77
2019-03-19T23:18:21.797Z,7.30
2019-03-19T23:20:52.703Z,10.03
2019-03-19T23:23:23.512Z,8.43
2019-03-19T23:25:58.003Z,10.23
2019-03-19T23:28:28.893Z,7.50
2019-03-19T23:30:59.720Z,10.60
2019-03-19T23:33:30.556Z,8.33
2019-03-19T23:36:01.308Z,7.70
2019-03-19T23:38:35.365Z,11.30
2019-03-19T23:41:06.644Z,8.17
2019-03-19T23:43:40.378Z,7.70
2019-03-19T23:46:11.282Z,8.37
2019-03-19T23:48:43.358Z,8.23
2019-03-19T23:51:14.421Z,14.17
2019-03-19T23:53:45.503Z,12.33
2019-03-19T23:56:19.618Z,8.57
2019-03-19T23:58:50.546Z,9.10
